createdAt,value
2022-10-17T00:02:25.289Z,13.00
2022-10-17T00:04:51.692Z,12.99
2022-10-17T00:07:18.077Z,13.00
2022-10-17T00:09:44.480Z,12.99
2022-10-17T00:12:10.965Z,12.99
2022-10-17T00:14:37.508Z,12.90
2022-10-17T00:17:03.878Z,12.88
2022-10-17T00:19:30.277Z,12.83
2022-10-17T00:21:56.670Z,12.84
2022-10-17T00:24:23.056Z,12.90
2022-10-17T00:26:49.446Z,12.95
2022-10-17T00:29:15.821Z,13.01
2022-10-17T00:31:42.293Z,12.99
2022-10-17T00:34:08.691Z,12.97
2022-10-17T00:36:35.089Z,12.96
2022-10-17T00:39:01.468Z,13.03
2022-10-17T00:41:29.946Z,13.06
2022-10-17T00:43:56.317Z,13.04
2022-10-17T00:46:23.644Z,13.02
2022-10-17T00:48:50.943Z,13.05
2022-10-17T00:51:17.333Z,13.08
2022-10-17T00:53:43.682Z,13.05
2022-10-17T00:56:10.054Z,12.99
2022-10-17T00:58:36.429Z,12.94
2022-10-17T01:01:03.056Z,12.91
2022-10-17T01:03:29.455Z,12.88
2022-10-17T01:05:55.836Z,12.85
2022-10-17T01:08:22.228Z,12.80
2022-10-17T01:11:05.641Z,12.81
2022-10-17T01:13:37.449Z,12.81
2022-10-17T01:16:11.726Z,12.80
2022-10-17T01:18:41.100Z,12.77
2022-10-17T01:21:55.609Z,12.75
2022-10-17T01:24:49.273Z,12.73
2022-10-17T01:27:53.272Z,12.68
2022-10-17T01:30:19.628Z,12.63
2022-10-17T01:32:49.539Z,12.57
2022-10-17T01:35:33.570Z,12.51
2022-10-17T01:38:07.540Z,12.44
2022-10-17T01:40:56.359Z,12.38
2022-10-17T01:43:38.470Z,12.29
2022-10-17T01:46:27.019Z,12.32
2022-10-17T01:48:53.386Z,12.30
2022-10-17T01:51:26.600Z,12.30
2022-10-17T01:53:56.622Z,12.30
2022-10-17T01:56:23.711Z,12.23
2022-10-17T01:58:52.802Z,12.23
2022-10-17T02:01:19.313Z,12.23
2022-10-17T02:03:46.044Z,12.24
2022-10-17T02:06:12.427Z,12.22
2022-10-17T02:08:42.076Z,12.20
2022-10-17T02:11:26.676Z,12.19
2022-10-17T02:14:05.921Z,12.18
2022-10-17T02:16:42.137Z,12.13
2022-10-17T02:19:55.170Z,12.08
2022-10-17T02:22:24.696Z,12.03
2022-10-17T02:24:54.167Z,12.02
2022-10-17T02:27:24.042Z,12.00
2022-10-17T02:29:57.134Z,11.96
2022-10-17T02:32:35.770Z,11.98
2022-10-17T02:35:02.740Z,11.95
2022-10-17T02:37:30.015Z,11.94
2022-10-17T02:39:57.478Z,11.92
2022-10-17T02:42:23.897Z,11.94
2022-10-17T02:44:50.269Z,11.92
2022-10-17T02:47:26.045Z,11.90
2022-10-17T02:49:53.696Z,11.93
2022-10-17T02:52:22.545Z,11.91
2022-10-17T02:54:52.709Z,11.93
2022-10-17T02:57:24.042Z,11.89
2022-10-17T02:59:50.436Z,11.88
2022-10-17T03:02:16.918Z,11.92
2022-10-17T03:04:45.821Z,11.98
2022-10-17T03:07:12.210Z,11.97
2022-10-17T03:09:38.600Z,11.96
2022-10-17T03:12:05.555Z,11.95
2022-10-17T03:14:31.937Z,11.95
2022-10-17T03:16:58.390Z,12.00
2022-10-17T03:19:24.794Z,11.99
2022-10-17T03:21:51.183Z,12.01
2022-10-17T03:24:17.575Z,12.10
2022-10-17T03:26:44.043Z,12.12
2022-10-17T03:29:10.455Z,12.16
2022-10-17T03:31:36.902Z,12.14
2022-10-17T03:34:03.704Z,12.17
2022-10-17T03:36:30.098Z,12.19
2022-10-17T03:38:56.510Z,12.17
2022-10-17T03:41:22.900Z,12.17
2022-10-17T03:43:49.309Z,12.17
2022-10-17T03:46:15.742Z,12.15
2022-10-17T03:48:42.123Z,12.15
2022-10-17T03:51:09.251Z,12.18
2022-10-17T03:53:35.732Z,12.17
2022-10-17T03:56:15.784Z,12.20
2022-10-17T03:58:42.236Z,12.17
2022-10-17T04:01:09.615Z,12.12
2022-10-17T04:03:36.074Z,12.11
2022-10-17T04:06:03.054Z,12.08
2022-10-17T04:08:29.664Z,12.04
2022-10-17T04:11:02.634Z,12.04
2022-10-17T04:13:29.156Z,12.01
2022-10-17T04:16:03.531Z,12.01
2022-10-17T04:18:30.134Z,12.00
2022-10-17T04:20:56.678Z,11.99
2022-10-17T04:23:23.349Z,11.98
2022-10-17T04:25:49.723Z,11.96
2022-10-17T04:28:16.111Z,11.94
2022-10-17T04:30:45.130Z,11.93
2022-10-17T04:33:12.124Z,11.94
2022-10-17T04:35:38.495Z,11.94
2022-10-17T04:38:04.882Z,11.96
2022-10-17T04:40:31.335Z,11.94
2022-10-17T04:42:57.759Z,11.97
2022-10-17T04:45:24.137Z,11.98
2022-10-17T04:47:50.511Z,11.95
2022-10-17T04:50:16.890Z,11.94
2022-10-17T04:52:43.257Z,11.92
2022-10-17T04:55:09.659Z,11.89
2022-10-17T04:57:37.367Z,11.96
2022-10-17T05:00:04.178Z,11.94
2022-10-17T05:02:30.964Z,11.98
2022-10-17T05:04:57.587Z,12.00
2022-10-17T05:07:23.987Z,11.97
2022-10-17T05:09:53.181Z,11.93
2022-10-17T05:12:19.553Z,11.89
2022-10-17T05:14:45.951Z,11.88
2022-10-17T05:17:12.324Z,11.83
2022-10-17T05:19:38.730Z,11.83
2022-10-17T05:22:05.116Z,11.79
2022-10-17T05:24:31.506Z,11.76
2022-10-17T05:26:57.905Z,11.75
2022-10-17T05:29:24.324Z,11.78
2022-10-17T05:31:50.776Z,11.82
2022-10-17T05:34:17.199Z,11.85
2022-10-17T05:36:43.585Z,11.87
2022-10-17T05:39:10.482Z,11.83
2022-10-17T05:41:36.873Z,11.84
2022-10-17T05:44:05.557Z,11.91
2022-10-17T05:46:32.341Z,11.93
2022-10-17T05:48:58.704Z,11.95
2022-10-17T05:51:25.085Z,11.90
2022-10-17T05:53:51.516Z,11.88
2022-10-17T05:56:20.261Z,11.88
2022-10-17T05:58:53.222Z,11.90
2022-10-17T06:01:21.523Z,11.88
2022-10-17T06:03:47.947Z,11.87
2022-10-17T06:06:14.669Z,11.92
2022-10-17T06:08:41.111Z,11.92
2022-10-17T06:11:10.063Z,11.90
2022-10-17T06:13:37.318Z,11.91
2022-10-17T06:16:03.779Z,11.87
2022-10-17T06:18:30.161Z,11.88
2022-10-17T06:21:05.673Z,11.86
2022-10-17T06:23:32.199Z,11.90
2022-10-17T06:26:02.728Z,11.90
2022-10-17T06:28:29.210Z,11.93
2022-10-17T06:30:55.656Z,11.97
2022-10-17T06:33:23.227Z,12.00
2022-10-17T06:35:53.527Z,12.06
2022-10-17T06:38:20.238Z,12.10
2022-10-17T06:40:46.669Z,12.09
2022-10-17T06:43:13.573Z,12.09
2022-10-17T06:45:40.100Z,12.11
2022-10-17T06:48:06.977Z,12.10
2022-10-17T06:50:33.415Z,12.10
2022-10-17T06:52:59.820Z,12.12
2022-10-17T06:55:26.231Z,12.16
2022-10-17T06:57:55.076Z,12.16
2022-10-17T07:00:23.430Z,12.23
2022-10-17T07:02:49.873Z,12.29
2022-10-17T07:05:16.415Z,12.32
2022-10-17T07:07:44.775Z,12.37
2022-10-17T07:10:12.830Z,12.44
2022-10-17T07:12:39.304Z,12.49
2022-10-17T07:15:06.058Z,12.53
2022-10-17T07:17:32.739Z,12.59
2022-10-17T07:19:59.160Z,12.65
2022-10-17T07:22:25.630Z,12.82
2022-10-17T07:24:52.097Z,13.11
2022-10-17T07:27:18.535Z,13.19
2022-10-17T07:29:44.916Z,13.35
2022-10-17T07:32:11.304Z,13.40
2022-10-17T07:34:37.664Z,13.46
2022-10-17T07:37:04.176Z,13.45
2022-10-17T07:39:30.536Z,13.50
2022-10-17T07:41:56.973Z,13.54
2022-10-17T07:44:23.355Z,13.57
2022-10-17T07:46:49.815Z,13.71
2022-10-17T07:49:16.311Z,13.82
2022-10-17T07:51:43.115Z,13.86
2022-10-17T07:54:09.584Z,13.89
2022-10-17T07:56:36.199Z,13.94
2022-10-17T07:59:05.206Z,14.00
2022-10-17T08:01:34.723Z,14.04
2022-10-17T08:04:01.213Z,14.09
2022-10-17T08:06:27.590Z,14.19
2022-10-17T08:08:54.027Z,14.30
2022-10-17T08:11:21.227Z,14.42
2022-10-17T08:13:47.599Z,14.49
2022-10-17T08:16:14.040Z,14.62
2022-10-17T08:18:41.223Z,14.74
2022-10-17T08:21:08.396Z,14.92
2022-10-17T08:23:34.856Z,15.01
2022-10-17T08:26:02.184Z,15.25
2022-10-17T08:28:28.700Z,15.31
2022-10-17T08:31:03.179Z,15.45
2022-10-17T08:33:29.552Z,15.61
2022-10-17T08:35:58.583Z,15.61
2022-10-17T08:38:27.768Z,15.86
2022-10-17T08:40:56.372Z,15.86
2022-10-17T08:43:45.014Z,15.98
2022-10-17T08:46:11.689Z,16.13
2022-10-17T08:48:43.984Z,16.29
2022-10-17T08:51:25.511Z,16.25
2022-10-17T08:54:00.533Z,16.16
2022-10-17T08:56:44.533Z,16.22
2022-10-17T08:59:21.941Z,16.36
2022-10-17T09:02:01.858Z,16.58
2022-10-17T09:04:52.881Z,16.62
2022-10-17T09:07:33.729Z,16.59
2022-10-17T09:10:11.533Z,16.82
2022-10-17T09:12:38.110Z,16.99
2022-10-17T09:15:23.871Z,17.18
2022-10-17T09:18:02.040Z,17.28
2022-10-17T09:20:31.725Z,17.57
2022-10-17T09:23:02.038Z,17.84
2022-10-17T09:25:28.514Z,17.90
2022-10-17T09:28:06.433Z,17.91
2022-10-17T09:30:56.009Z,18.12
2022-10-17T09:33:42.395Z,18.39
2022-10-17T09:36:21.368Z,18.48
2022-10-17T09:38:49.696Z,18.67
2022-10-17T09:44:14.313Z,18.86
2022-10-17T09:46:40.739Z,18.94
2022-10-17T09:49:17.247Z,18.93
2022-10-17T09:51:44.016Z,19.09
2022-10-17T09:54:59.957Z,19.21
2022-10-17T09:57:26.457Z,19.13
2022-10-17T10:00:00.718Z,19.21
2022-10-17T10:02:29.090Z,19.32
2022-10-17T10:05:21.547Z,19.48
2022-10-17T10:08:02.629Z,19.55
2022-10-17T10:10:29.535Z,19.44
2022-10-17T10:13:07.566Z,19.44
2022-10-17T10:15:40.931Z,19.57
2022-10-17T10:18:33.110Z,19.65
2022-10-17T10:21:23.757Z,19.83
2022-10-17T10:24:06.648Z,20.01
2022-10-17T10:26:46.100Z,20.09
2022-10-17T10:29:38.140Z,20.02
2022-10-17T10:32:33.637Z,20.24
2022-10-17T10:35:07.457Z,20.51
2022-10-17T10:37:38.838Z,20.47
2022-10-17T10:40:31.593Z,20.57
2022-10-17T10:43:02.638Z,20.46
2022-10-17T10:45:52.820Z,20.67
2022-10-17T10:48:24.178Z,20.83
2022-10-17T10:51:13.057Z,20.92
2022-10-17T10:53:54.489Z,21.06
2022-10-17T10:56:26.131Z,21.05
2022-10-17T10:58:56.991Z,21.04
2022-10-17T11:01:35.548Z,21.14
2022-10-17T11:04:25.100Z,21.11
2022-10-17T11:06:53.234Z,21.18
2022-10-17T11:09:28.813Z,21.15
2022-10-17T11:12:05.573Z,21.03
2022-10-17T11:14:51.996Z,20.91
2022-10-17T11:17:44.796Z,21.10
2022-10-17T11:20:16.009Z,21.17
2022-10-17T11:22:45.395Z,21.26
2022-10-17T11:25:11.777Z,21.33
2022-10-17T11:27:38.190Z,21.23
2022-10-17T11:30:05.679Z,21.34
2022-10-17T11:32:39.107Z,21.34
2022-10-17T11:35:08.068Z,21.31
2022-10-17T11:37:38.362Z,21.49
2022-10-17T11:40:20.404Z,21.67
2022-10-17T11:43:03.560Z,21.78
2022-10-17T11:45:33.814Z,21.75
2022-10-17T11:48:06.480Z,21.84
2022-10-17T11:53:34.271Z,22.30
2022-10-17T11:56:00.661Z,22.51
2022-10-17T11:58:38.465Z,22.59
2022-10-17T12:01:26.200Z,22.82
2022-10-17T12:03:58.666Z,22.87
2022-10-17T12:06:47.470Z,22.87
2022-10-17T12:09:29.178Z,22.72
2022-10-17T12:11:57.251Z,22.74
2022-10-17T12:14:41.924Z,22.63
2022-10-17T12:17:32.404Z,22.67
2022-10-17T12:20:28.530Z,22.71
2022-10-17T12:22:58.320Z,22.70
2022-10-17T12:25:29.996Z,22.77
2022-10-17T12:28:25.968Z,22.76
2022-10-17T12:31:17.340Z,22.66
2022-10-17T12:33:51.935Z,22.47
2022-10-17T12:36:28.043Z,22.52
2022-10-17T12:39:03.730Z,22.54
2022-10-17T12:41:39.413Z,22.49
2022-10-17T12:44:26.885Z,22.35
2022-10-17T12:46:59.407Z,22.20
2022-10-17T12:49:38.935Z,22.15
2022-10-17T12:52:17.553Z,22.22
2022-10-17T12:55:10.563Z,22.23
2022-10-17T12:58:00.231Z,22.25
2022-10-17T13:01:05.344Z,22.17
2022-10-17T13:03:35.629Z,22.35
2022-10-17T13:06:03.878Z,22.57
2022-10-17T13:08:32.518Z,22.71
2022-10-17T13:10:59.037Z,22.51
2022-10-17T13:13:39.095Z,22.62
2022-10-17T13:16:05.621Z,22.68
2022-10-17T13:18:32.019Z,22.70
2022-10-17T13:21:03.806Z,22.62
2022-10-17T13:23:35.333Z,22.63
2022-10-17T13:29:05.310Z,22.55
2022-10-17T13:31:36.594Z,22.57
2022-10-17T13:34:05.388Z,22.68
2022-10-17T13:36:32.342Z,22.61
2022-10-17T13:38:59.835Z,22.61
2022-10-17T13:41:37.162Z,22.64
2022-10-17T13:44:12.647Z,22.63
2022-10-17T13:46:39.901Z,22.56
2022-10-17T13:49:33.850Z,22.48
2022-10-17T13:52:01.391Z,22.51
2022-10-17T13:54:30.969Z,22.54
2022-10-17T13:56:57.823Z,22.43
2022-10-17T13:59:26.837Z,22.38
2022-10-17T14:01:54.925Z,22.38
2022-10-17T14:04:21.352Z,22.39
2022-10-17T14:06:49.831Z,22.44
2022-10-17T14:09:25.084Z,22.37
2022-10-17T14:12:11.042Z,22.31
2022-10-17T14:14:58.393Z,22.36
2022-10-17T14:17:25.792Z,22.26
2022-10-17T14:20:16.047Z,22.34
2022-10-17T14:22:40.576Z,22.18
2022-10-17T14:25:29.950Z,22.12
2022-10-17T14:28:07.972Z,22.07
2022-10-17T14:30:55.572Z,22.13
2022-10-17T14:33:25.984Z,22.31
2022-10-17T14:35:53.066Z,22.40
2022-10-17T14:38:19.733Z,22.45
2022-10-17T14:40:50.778Z,22.49
2022-10-17T14:43:21.641Z,22.47
2022-10-17T14:45:48.039Z,22.36
2022-10-17T14:48:16.489Z,22.36
2022-10-17T14:50:46.777Z,22.22
2022-10-17T14:53:13.133Z,22.19
2022-10-17T14:55:40.171Z,22.13
2022-10-17T14:58:24.039Z,22.10
2022-10-17T15:00:50.479Z,22.01
2022-10-17T15:03:19.219Z,22.01
2022-10-17T15:05:46.639Z,22.06
2022-10-17T15:08:14.289Z,21.99
2022-10-17T15:10:41.951Z,21.93
2022-10-17T15:15:55.229Z,21.73
2022-10-17T15:18:21.608Z,21.70
2022-10-17T15:20:52.676Z,21.73
2022-10-17T15:23:27.130Z,21.78
2022-10-17T15:25:53.527Z,21.65
2022-10-17T15:28:19.921Z,21.55
2022-10-17T15:30:46.369Z,21.55
2022-10-17T15:33:12.722Z,21.56
2022-10-17T15:35:39.107Z,21.55
2022-10-17T15:38:06.757Z,21.52
2022-10-17T15:40:33.152Z,21.48
2022-10-17T15:42:59.579Z,21.34
2022-10-17T15:45:25.993Z,21.34
2022-10-17T15:47:56.496Z,21.22
2022-10-17T15:50:22.954Z,21.18
2022-10-17T15:52:52.406Z,21.10
2022-10-17T15:55:19.108Z,21.06
2022-10-17T15:57:46.141Z,21.06
2022-10-17T16:00:23.064Z,21.03
2022-10-17T16:02:49.899Z,21.02
2022-10-17T16:05:25.510Z,20.95
2022-10-17T16:07:55.671Z,20.98
2022-10-17T16:10:22.386Z,20.91
2022-10-17T16:12:49.959Z,20.91
2022-10-17T16:15:22.452Z,20.91
2022-10-17T16:17:52.787Z,20.79
2022-10-17T16:20:19.727Z,20.82
2022-10-17T16:22:46.268Z,20.78
2022-10-17T16:25:19.888Z,20.64
2022-10-17T16:27:47.271Z,20.58
2022-10-17T16:30:13.815Z,20.51
2022-10-17T16:32:40.375Z,20.46
2022-10-17T16:35:07.124Z,20.31
2022-10-17T16:37:33.713Z,20.29
2022-10-17T16:40:00.627Z,20.27
2022-10-17T16:42:27.116Z,20.25
2022-10-17T16:44:53.601Z,20.26
2022-10-17T16:47:20.079Z,20.20
2022-10-17T16:49:46.576Z,20.16
2022-10-17T16:52:13.070Z,20.14
2022-10-17T16:54:39.490Z,20.13
2022-10-17T16:57:06.007Z,20.11
2022-10-17T16:59:32.440Z,20.17
2022-10-17T17:01:58.802Z,20.09
2022-10-17T17:04:25.301Z,20.12
2022-10-17T17:06:51.775Z,20.11
2022-10-17T17:09:18.170Z,20.09
2022-10-17T17:11:44.527Z,20.02
2022-10-17T17:14:11.056Z,19.91
2022-10-17T17:16:37.445Z,19.89
2022-10-17T17:19:08.192Z,19.80
2022-10-17T17:21:34.782Z,19.69
2022-10-17T17:24:01.876Z,19.60
2022-10-17T17:26:29.828Z,19.47
2022-10-17T17:28:57.722Z,19.52
2022-10-17T17:31:26.103Z,19.52
2022-10-17T17:33:52.752Z,19.59
2022-10-17T17:36:27.358Z,19.62
2022-10-17T17:38:54.952Z,19.69
2022-10-17T17:41:21.385Z,19.73
2022-10-17T17:43:48.223Z,19.72
2022-10-17T17:46:19.129Z,19.69
2022-10-17T17:48:46.277Z,19.68
2022-10-17T17:51:13.606Z,19.68
2022-10-17T17:53:40.099Z,19.75
2022-10-17T17:56:26.565Z,19.76
2022-10-17T17:58:55.120Z,19.73
2022-10-17T18:01:22.820Z,19.67
2022-10-17T18:03:50.079Z,19.68
2022-10-17T18:06:16.717Z,19.70
2022-10-17T18:08:51.203Z,19.67
2022-10-17T18:11:19.724Z,19.64
2022-10-17T18:13:52.428Z,19.64
2022-10-17T18:16:18.903Z,19.58
2022-10-17T18:18:45.283Z,19.49
2022-10-17T18:21:12.962Z,19.40
2022-10-17T18:23:43.441Z,19.33
2022-10-17T18:26:10.034Z,19.22
2022-10-17T18:28:37.608Z,19.15
2022-10-17T18:31:12.300Z,19.10
2022-10-17T18:33:39.272Z,19.03
2022-10-17T18:36:07.635Z,18.98
2022-10-17T18:38:34.052Z,18.95
2022-10-17T18:41:07.238Z,18.94
2022-10-17T18:43:38.021Z,18.91
2022-10-17T18:46:12.444Z,18.91
2022-10-17T18:48:42.626Z,18.85
2022-10-17T18:51:09.086Z,18.78
2022-10-17T18:53:36.684Z,18.70
2022-10-17T18:56:03.346Z,18.65
2022-10-17T18:58:29.786Z,18.59
2022-10-17T19:01:01.651Z,18.54
2022-10-17T19:03:28.035Z,18.52
2022-10-17T19:05:56.659Z,18.49
2022-10-17T19:08:25.472Z,18.55
2022-10-17T19:10:51.833Z,18.53
2022-10-17T19:13:21.516Z,18.52
2022-10-17T19:15:48.194Z,18.50
2022-10-17T19:18:14.610Z,18.47
2022-10-17T19:20:41.008Z,18.46
2022-10-17T19:23:07.405Z,18.46
2022-10-17T19:25:33.817Z,18.43
2022-10-17T19:28:00.479Z,18.42
2022-10-17T19:30:26.862Z,18.42
2022-10-17T19:32:53.284Z,18.40
2022-10-17T19:35:19.695Z,18.36
2022-10-17T19:37:46.060Z,18.34
2022-10-17T19:40:12.820Z,18.33
2022-10-17T19:42:39.222Z,18.32
2022-10-17T19:45:06.361Z,18.29
2022-10-17T19:47:32.733Z,18.23
2022-10-17T19:49:59.136Z,18.24
2022-10-17T19:52:25.663Z,18.24
2022-10-17T19:54:52.040Z,18.25
2022-10-17T19:57:18.436Z,18.20
2022-10-17T19:59:44.864Z,18.19
2022-10-17T20:02:12.846Z,18.16
2022-10-17T20:04:49.584Z,18.17
2022-10-17T20:07:25.712Z,18.11
2022-10-17T20:09:52.071Z,18.09
2022-10-17T20:12:18.446Z,18.07
2022-10-17T20:14:44.813Z,18.01
2022-10-17T20:17:11.199Z,17.99
2022-10-17T20:19:37.574Z,17.98
2022-10-17T20:22:03.980Z,18.00
2022-10-17T20:24:30.411Z,17.94
2022-10-17T20:26:56.891Z,17.94
2022-10-17T20:29:24.002Z,17.94
2022-10-17T20:31:50.522Z,17.91
2022-10-17T20:34:17.671Z,17.85
2022-10-17T20:36:44.271Z,17.79
2022-10-17T20:39:12.058Z,17.74
2022-10-17T20:41:38.551Z,17.72
2022-10-17T20:44:06.700Z,17.68
2022-10-17T20:46:37.617Z,17.68
2022-10-17T20:49:06.720Z,17.66
2022-10-17T20:51:33.661Z,17.65
2022-10-17T20:54:00.189Z,17.65
2022-10-17T20:56:28.534Z,17.64
2022-10-17T20:58:56.909Z,17.63
2022-10-17T21:01:23.801Z,17.59
2022-10-17T21:03:50.444Z,17.55
2022-10-17T21:06:17.257Z,17.52
2022-10-17T21:08:43.947Z,17.49
2022-10-17T21:11:14.304Z,17.45
2022-10-17T21:13:40.761Z,17.44
2022-10-17T21:16:11.723Z,17.41
2022-10-17T21:18:38.334Z,17.43
2022-10-17T21:21:11.371Z,17.40
2022-10-17T21:23:38.111Z,17.39
2022-10-17T21:26:05.839Z,17.38
2022-10-17T21:28:32.321Z,17.33
2022-10-17T21:31:21.599Z,17.28
2022-10-17T21:33:49.609Z,17.21
2022-10-17T21:36:19.184Z,17.18
2022-10-17T21:38:48.221Z,17.15
2022-10-17T21:41:15.727Z,17.10
2022-10-17T21:43:42.491Z,17.09
2022-10-17T21:46:16.504Z,17.07
2022-10-17T21:48:43.470Z,17.05
2022-10-17T21:51:12.236Z,17.05
2022-10-17T21:53:38.786Z,17.01
2022-10-17T21:56:07.178Z,17.00
2022-10-17T21:58:33.613Z,16.98
2022-10-17T22:01:16.960Z,16.97
2022-10-17T22:03:46.753Z,16.95
2022-10-17T22:09:09.632Z,16.92
2022-10-17T22:11:36.077Z,16.89
2022-10-17T22:14:05.113Z,16.87
2022-10-17T22:16:31.687Z,16.89
2022-10-17T22:19:03.109Z,16.88
2022-10-17T22:21:32.482Z,16.88
2022-10-17T22:24:00.514Z,16.87
2022-10-17T22:26:30.689Z,16.85
2022-10-17T22:28:57.209Z,16.84
2022-10-17T22:31:23.614Z,16.80
2022-10-17T22:33:50.163Z,16.81
2022-10-17T22:36:16.579Z,16.80
2022-10-17T22:38:42.957Z,16.79
2022-10-17T22:41:09.341Z,16.79
2022-10-17T22:43:35.770Z,16.79
2022-10-17T22:46:04.689Z,16.77
2022-10-17T22:48:31.197Z,16.76
2022-10-17T22:50:58.237Z,16.76
2022-10-17T22:53:26.398Z,16.77
2022-10-17T22:55:53.351Z,16.76
2022-10-17T22:58:20.256Z,16.72
2022-10-17T23:00:47.498Z,16.71
2022-10-17T23:03:13.893Z,16.71
2022-10-17T23:05:40.496Z,16.70
2022-10-17T23:08:07.040Z,16.68
2022-10-17T23:10:33.636Z,16.67
2022-10-17T23:13:00.000Z,16.68
2022-10-17T23:15:26.390Z,16.67
2022-10-17T23:17:52.763Z,16.65
2022-10-17T23:20:19.177Z,16.65
2022-10-17T23:22:45.545Z,16.67
2022-10-17T23:25:11.938Z,16.64
2022-10-17T23:27:38.319Z,16.63
2022-10-17T23:30:05.081Z,16.60
2022-10-17T23:32:31.690Z,16.60
2022-10-17T23:34:58.249Z,16.60
2022-10-17T23:37:24.622Z,16.59
2022-10-17T23:39:50.999Z,16.57
2022-10-17T23:42:17.468Z,16.58
2022-10-17T23:44:43.827Z,16.55
2022-10-17T23:47:10.187Z,16.57
2022-10-17T23:49:36.548Z,16.56
2022-10-17T23:52:02.994Z,16.55
2022-10-17T23:54:29.396Z,16.52
2022-10-17T23:56:55.843Z,16.53
2022-10-17T23:59:22.231Z,16.54
